Terminal Aerodrome Forecast
Issued by NWS

Home | Current Version | Previous Version | Text Only | Print | Product List | Glossary On
Versions: 1 2 3 4 5 6 7 8 9 10 11 12 13 14 15 16 17 18 19 20 21 22 23 24 25 26 27 28 29 30 31 32 33 34 35 36
000
FTUS46 KOTX 191739
TAFCOE
TAF
KCOE 191739Z 1918/2018 18006KT P6SM -RA OVC013
     FM192000 20007KT P6SM -SHRA BKN022 OVC030
     FM192200 21008KT P6SM -SHRA BKN030 BKN045
     FM200200 17008KT P6SM VCSH BKN035 BKN050
     FM200700 16005KT P6SM BKN015=

USA.gov is the U.S. government's official web portal to all federal, state and local government web resources and services.